Time;durP1;ratioP1;P1;durP2;ratioP2;P2;SDS_P1;SDS_P2;PMS_P1;PMS_P2;Temp;Humidity;BMP_temperature;BMP_pressure;BME280_temperature;BME280_humidity;BME280_pressure;Samples;Min_cycle;Max_cycle;Signal;HPM_P1;HPM_P2
2022/01/24 00:00:54;;;;;;;9.52;6.65;;;;;;;0.67;73.33;100604.84;5065447;28;20048;-68
2022/01/24 00:03:26;;;;;;;11.52;7.93;;;;;;;1.58;73.64;100759.28;5065419;28;20045;-68
2022/01/24 00:06:00;;;;;;;9.27;7.10;;;;;;;1.57;73.68;100768.88;5066188;28;20083;-67
2022/01/24 00:08:32;;;;;;;10.25;7.45;;;;;;;1.56;73.43;100768.88;5065426;28;20284;-68
2022/01/24 00:11:09;;;;;;;14.75;8.20;;;;;;;1.54;73.16;100771.47;5066499;28;20104;-68
2022/01/24 00:14:23;;;;;;;10.73;7.35;;;;;;;1.54;73.66;100774.09;5065604;28;20049;-68
2022/01/24 00:17:01;;;;;;;8.18;6.32;;;;;;;1.19;73.61;100716.47;5065793;28;20296;-68
2022/01/24 00:28:20;;;;;;;9.45;6.40;;;;;;;1.42;73.38;100773.16;5024718;28;20131;-68
2022/01/24 00:30:53;;;;;;;11.90;7.75;;;;;;;0.56;73.40;100647.41;5007703;28;20049;-68
2022/01/24 00:33:25;;;;;;;11.85;6.80;;;;;;;1.45;73.16;100766.22;5047674;28;20240;-67
2022/01/24 00:35:57;;;;;;;10.90;5.63;;;;;;;1.43;73.36;100767.94;5065745;28;20289;-67
2022/01/24 00:38:33;;;;;;;11.50;6.15;;;;;;;0.88;73.13;100665.84;5065742;28;20040;-67
2022/01/24 00:41:12;;;;;;;8.65;6.75;;;;;;;1.42;73.02;100800.16;5065840;28;20041;-67
2022/01/24 00:44:00;;;;;;;7.47;5.72;;;;;;;1.42;72.97;100767.94;5066319;28;20033;-67
2022/01/24 00:46:37;;;;;;;9.85;6.70;;;;;;;-0.34;72.69;100507.78;5065085;28;20048;-68
2022/01/24 00:49:25;;;;;;;8.32;6.57;;;;;;;1.36;72.81;100765.31;5065885;28;20044;-67
2022/01/24 00:54:52;;;;;;;8.95;5.63;;;;;;;1.36;73.05;100768.78;5048095;28;20095;-68
2022/01/24 00:57:24;;;;;;;10.88;7.65;;;;;;;1.33;72.86;100775.72;5064634;28;20048;-67
2022/01/24 00:59:57;;;;;;;9.45;6.82;;;;;;;1.31;72.78;100785.31;5048828;28;20116;-68
2022/01/24 01:02:30;;;;;;;9.23;5.40;;;;;;;0.97;72.78;100718.97;5065069;28;20285;-68
2022/01/24 01:05:12;;;;;;;12.40;7.22;;;;;;;1.29;72.44;100774.84;5064469;28;20120;-68
2022/01/24 01:07:56;;;;;;;8.57;6.55;;;;;;;0.89;72.68;100713.72;5047943;28;20067;-68
2022/01/24 01:18:58;;;;;;;9.00;5.55;;;;;;;0.99;72.40;100730.28;5065257;28;20091;-69
2022/01/24 01:21:30;;;;;;;9.95;6.30;;;;;;;0.71;72.30;100672.72;5066153;28;20044;-69
2022/01/24 01:24:07;;;;;;;10.55;6.55;;;;;;;1.28;72.52;100767.88;5065475;28;20083;-69
2022/01/24 01:26:48;;;;;;;11.70;6.18;;;;;;;1.30;72.20;100758.31;5065207;28;20104;-69
2022/01/24 01:29:24;;;;;;;10.80;6.50;;;;;;;1.15;72.07;100726.91;5064565;28;20280;-68
2022/01/24 01:32:08;;;;;;;10.70;6.45;;;;;;;1.01;71.94;100708.56;5032728;28;20045;-67
2022/01/24 01:35:03;;;;;;;8.63;6.05;;;;;;;1.24;71.90;100755.66;5065269;28;20067;-69
2022/01/24 01:38:14;;;;;;;12.23;7.90;;;;;;;1.22;72.24;100760.88;5064834;28;20247;-67
2022/01/24 01:52:31;;;;;;;10.75;6.40;;;;;;;0.86;71.56;100688.47;5068337;28;20087;-66
2022/01/24 01:55:25;;;;;;;;;;;;;;;1.15;70.30;100753.88;5068366;28;20041;-66
2022/01/24 01:57:55;;;;;;;10.98;6.03;;;;;;;1.13;71.05;100747.78;5068561;28;19917;-66
2022/01/24 02:00:27;;;;;;;11.98;6.57;;;;;;;0.88;71.02;100697.19;5067891;28;20044;-66
2022/01/24 02:02:55;;;;;;;9.70;6.88;;;;;;;0.99;71.34;100701.56;5068515;28;20037;-66
2022/01/24 02:05:26;;;;;;;11.10;6.55;;;;;;;1.26;71.33;100738.25;5068309;28;20241;-66
2022/01/24 02:07:56;;;;;;;9.00;5.90;;;;;;;0.85;71.30;100657.13;5051261;28;20332;-67
2022/01/24 02:10:26;;;;;;;8.90;6.18;;;;;;;1.28;70.68;100736.53;5067562;28;20289;-68
2022/01/24 02:12:57;;;;;;;9.82;5.95;;;;;;;0.96;71.06;100676.34;5068868;28;20193;-67
2022/01/24 02:15:38;;;;;;;7.20;5.85;;;;;;;1.26;70.74;100735.66;5068517;28;20152;-68
2022/01/24 02:18:22;;;;;;;9.45;6.15;;;;;;;0.76;71.17;100644.03;5067136;28;20041;-67
2022/01/24 02:21:13;;;;;;;8.52;5.45;;;;;;;0.13;71.07;100570.66;5067545;28;20067;-67
2022/01/24 02:23:49;;;;;;;11.65;5.95;;;;;;;0.96;71.02;100684.16;5068297;28;20041;-67
2022/01/24 02:26:22;;;;;;;9.35;6.82;;;;;;;1.25;71.31;100734.78;5067258;28;20036;-68
2022/01/24 02:29:02;;;;;;;11.13;6.38;;;;;;;1.24;70.97;100733.03;5068025;28;20087;-68
2022/01/24 02:31:44;;;;;;;11.60;7.57;;;;;;;0.47;70.95;100623.00;5067933;28;20048;-68
2022/01/24 02:34:37;;;;;;;9.27;6.07;;;;;;;1.28;69.75;100725.22;5067093;28;20044;-68
2022/01/24 02:37:12;;;;;;;11.07;7.32;;;;;;;1.29;71.18;100729.56;5068011;28;20041;-69
2022/01/24 02:39:51;;;;;;;9.65;6.05;;;;;;;1.29;70.94;100733.06;5066639;28;20140;-67
2022/01/24 02:53:57;;;;;;;10.25;7.95;;;;;;;1.22;70.96;100741.72;5005870;28;20050;-67
2022/01/24 02:56:31;;;;;;;10.50;6.35;;;;;;;0.98;70.93;100694.59;5053780;28;20057;-67
2022/01/24 02:59:03;;;;;;;10.23;5.78;;;;;;;1.25;71.08;100740.00;5067484;28;20045;-67
2022/01/24 03:01:35;;;;;;;9.68;7.68;;;;;;;-1.41;70.77;100272.72;5067277;28;20090;-67
2022/01/24 03:04:08;;;;;;;10.15;6.25;;;;;;;1.03;71.01;100690.28;5066594;28;20049;-67
2022/01/24 03:06:40;;;;;;;12.27;6.88;;;;;;;1.34;71.07;100735.69;5067201;28;20041;-67
2022/01/24 03:09:13;;;;;;;9.82;6.88;;;;;;;1.33;70.82;100742.66;5066319;28;20052;-67
2022/01/24 03:14:37;;;;;;;10.43;6.30;;;;;;;1.25;70.94;100746.97;5066254;28;20040;-67
2022/01/24 03:17:09;;;;;;;9.48;6.05;;;;;;;1.25;70.94;100744.34;5066089;28;20048;-67
2022/01/24 03:19:41;;;;;;;10.32;6.78;;;;;;;1.21;70.70;100760.88;5067108;28;20059;-67
2022/01/24 03:22:13;;;;;;;9.23;6.15;;;;;;;1.10;70.67;100758.22;5067246;28;20090;-67
2022/01/24 03:24:46;;;;;;;10.13;5.97;;;;;;;1.13;71.01;100766.06;5067233;28;20232;-67
2022/01/24 03:27:19;;;;;;;9.20;6.40;;;;;;;1.06;70.76;100772.09;5066857;28;20232;-67
2022/01/24 03:29:52;;;;;;;10.63;6.95;;;;;;;0.98;70.97;100773.81;5067594;28;20045;-67
2022/01/24 03:32:24;;;;;;;9.15;5.85;;;;;;;0.98;71.57;100779.03;5066211;28;20045;-66
2022/01/24 03:34:56;;;;;;;6.78;5.45;;;;;;;0.99;71.50;100777.28;5066442;28;20041;-67
2022/01/24 03:37:28;;;;;;;10.85;6.35;;;;;;;1.00;71.62;100781.66;5065903;28;20087;-67
2022/01/24 03:40:01;;;;;;;10.85;6.75;;;;;;;0.99;71.78;100780.78;5066113;28;20087;-66
2022/01/24 03:42:35;;;;;;;9.23;6.22;;;;;;;1.00;71.63;100802.53;5065820;28;20041;-67
2022/01/24 03:45:10;;;;;;;9.95;6.05;;;;;;;0.96;71.96;100783.34;5066831;28;20048;-67
2022/01/24 03:47:56;;;;;;;9.60;6.78;;;;;;;0.96;72.14;100795.53;5066805;28;20296;-67
2022/01/24 03:50:28;;;;;;;9.13;6.78;;;;;;;0.98;72.38;100791.19;5065682;28;20292;-67
2022/01/24 03:52:59;;;;;;;10.13;6.38;;;;;;;0.74;72.25;100766.69;5065810;28;20033;-69
2022/01/24 03:55:29;;;;;;;9.45;6.47;;;;;;;1.01;72.21;100791.22;5065664;28;20100;-68
2022/01/24 03:58:01;;;;;;;12.73;7.88;;;;;;;0.31;72.16;100668.09;5063433;28;20052;-68
2022/01/24 04:00:30;;;;;;;11.02;5.90;;;;;;;1.06;72.37;100779.94;5066454;28;20324;-68
2022/01/24 04:02:59;;;;;;;9.48;6.07;;;;;;;1.03;71.80;100785.16;5066500;28;20068;-68
2022/01/24 04:05:30;;;;;;;9.90;7.13;;;;;;;1.02;72.15;100788.63;5065124;28;20061;-68
2022/01/24 04:08:01;;;;;;;12.07;7.70;;;;;;;0.97;72.19;100787.72;5065536;28;20116;-69
2022/01/24 04:10:39;;;;;;;13.77;7.40;;;;;;;0.93;72.11;100788.56;5066364;28;20310;-69
2022/01/24 04:13:25;;;;;;;8.70;6.45;;;;;;;0.89;72.60;100794.63;5066297;28;20083;-68
2022/01/24 04:16:12;;;;;;;14.02;8.40;;;;;;;0.86;73.19;100792.88;5065114;28;20047;-68
2022/01/24 04:18:51;;;;;;;10.10;7.00;;;;;;;0.91;72.87;100785.94;5065819;28;20049;-68
2022/01/24 04:21:27;;;;;;;8.70;6.70;;;;;;;1.00;72.85;100782.50;5065937;28;20037;-68
2022/01/24 04:24:05;;;;;;;10.73;7.63;;;;;;;-1.03;72.88;100443.84;5065781;28;20087;-68
2022/01/24 04:26:38;;;;;;;10.98;7.00;;;;;;;-0.18;73.12;100595.63;5065844;28;20044;-69
2022/01/24 04:29:12;;;;;;;12.73;8.43;;;;;;;0.93;73.63;100789.44;5065230;28;20045;-68
2022/01/24 04:31:45;;;;;;;10.43;7.22;;;;;;;0.92;73.72;100792.03;5065367;28;20071;-68
2022/01/24 04:34:17;;;;;;;11.48;7.53;;;;;;;0.96;73.70;100796.41;5065929;28;20091;-68
2022/01/24 04:36:49;;;;;;;10.10;7.10;;;;;;;0.69;73.87;100747.50;5065685;28;20045;-68
2022/01/24 04:39:22;;;;;;;10.05;6.97;;;;;;;0.65;74.00;100742.25;5065793;28;20040;-68
2022/01/24 04:41:56;;;;;;;12.00;8.27;;;;;;;0.93;74.22;100794.66;5065914;28;20041;-68
2022/01/24 04:44:48;;;;;;;10.35;6.38;;;;;;;0.69;74.26;100759.69;5065061;28;20289;-68
2022/01/24 04:47:27;;;;;;;11.80;7.75;;;;;;;0.94;74.32;100798.13;5065710;28;20083;-68
2022/01/24 04:52:56;;;;;;;9.30;8.30;;;;;;;0.89;74.53;100798.09;5065340;28;20045;-68
2022/01/24 04:55:28;;;;;;;12.13;7.20;;;;;;;0.86;74.67;100803.31;5065531;28;20037;-68
2022/01/24 04:57:58;;;;;;;11.25;7.55;;;;;;;0.82;75.02;100798.94;5064452;28;20041;-68
2022/01/24 05:00:30;;;;;;;10.88;7.45;;;;;;;0.78;75.19;100802.38;5064595;28;20044;-68
2022/01/24 05:02:58;;;;;;;11.18;7.45;;;;;;;0.80;75.26;100800.66;5065746;28;20029;-68
2022/01/24 05:05:29;;;;;;;14.23;8.45;;;;;;;0.77;75.20;100804.97;5064961;28;20072;-68
2022/01/24 05:08:03;;;;;;;10.18;8.27;;;;;;;0.70;75.77;100809.28;5065161;28;20041;-68
2022/01/24 05:10:39;;;;;;;10.63;7.65;;;;;;;0.72;75.41;100812.78;5065127;28;20037;-68
2022/01/24 05:24:51;;;;;;;11.10;7.70;;;;;;;0.66;75.83;100823.16;5030520;28;20456;-68
2022/01/24 05:27:23;;;;;;;9.52;6.93;;;;;;;0.67;75.58;100816.19;5014135;28;20045;-68
2022/01/24 05:29:55;;;;;;;7.18;5.55;;;;;;;0.57;75.58;100842.22;5053104;28;20103;-68
2022/01/24 05:32:29;;;;;;;9.18;6.65;;;;;;;0.60;75.67;100817.88;5071499;28;20091;-68
2022/01/24 05:35:01;;;;;;;9.82;6.72;;;;;;;0.04;75.94;100726.13;5071551;28;20040;-68
2022/01/24 05:37:33;;;;;;;8.45;6.32;;;;;;;0.57;75.96;100817.88;5071792;28;20045;-68
2022/01/24 05:40:07;;;;;;;7.55;5.70;;;;;;;0.49;76.30;100817.78;5071425;28;20087;-68
2022/01/24 05:42:40;;;;;;;8.50;6.25;;;;;;;0.26;76.00;100777.59;5071879;28;20087;-68
2022/01/24 05:45:12;;;;;;;10.55;6.60;;;;;;;0.52;76.11;100822.16;5070791;28;20045;-69
2022/01/24 05:47:46;;;;;;;12.07;6.75;;;;;;;0.46;76.18;100819.50;5053865;28;20052;-68
2022/01/24 05:50:19;;;;;;;9.85;6.35;;;;;;;0.47;76.13;100827.34;5071803;28;20071;-68
2022/01/24 05:52:51;;;;;;;7.93;6.35;;;;;;;0.49;76.00;100824.75;5071504;28;20041;-68
2022/01/24 05:55:23;;;;;;;8.57;6.25;;;;;;;-0.10;75.92;100725.97;5070548;28;20049;-68
2022/01/24 05:57:54;;;;;;;9.27;6.95;;;;;;;0.52;75.93;100827.38;5071405;28;20107;-68
2022/01/24 06:00:24;;;;;;;8.20;6.80;;;;;;;0.54;75.93;100825.66;5071237;28;20044;-68
2022/01/24 06:02:55;;;;;;;10.43;7.53;;;;;;;-6.05;75.65;99694.56;5071346;28;20353;-68
2022/01/24 06:05:27;;;;;;;10.77;7.57;;;;;;;0.54;76.28;100826.53;5071161;28;20316;-68
2022/01/24 06:07:59;;;;;;;12.80;9.00;;;;;;;0.32;76.26;100775.03;5071291;28;20041;-68
2022/01/24 06:10:29;;;;;;;10.23;8.02;;;;;;;0.61;76.35;100824.84;5070907;28;20051;-68
2022/01/24 06:12:59;;;;;;;11.02;7.20;;;;;;;0.64;76.39;100829.22;5070493;28;20049;-68
2022/01/24 06:15:30;;;;;;;11.95;8.35;;;;;;;-0.59;76.43;100641.25;5071311;28;20323;-68
2022/01/24 06:18:01;;;;;;;12.32;8.07;;;;;;;0.38;76.51;100774.22;5070358;28;20304;-68
2022/01/24 06:20:30;;;;;;;11.13;7.75;;;;;;;0.34;76.30;100768.09;5071078;28;20041;-68
2022/01/24 06:23:00;;;;;;;11.98;8.65;;;;;;;0.45;76.19;100782.09;5070243;28;20044;-69
2022/01/24 06:25:30;;;;;;;9.50;7.88;;;;;;;0.71;76.30;100831.91;5071331;28;20029;-69
2022/01/24 06:28:00;;;;;;;12.00;7.50;;;;;;;0.36;76.22;100771.59;5068808;28;20041;-69
2022/01/24 06:30:31;;;;;;;11.52;8.23;;;;;;;-0.04;76.25;100760.81;5068726;28;20037;-69
2022/01/24 06:33:02;;;;;;;11.40;8.27;;;;;;;-0.64;76.34;100666.38;5067975;28;20037;-68
2022/01/24 06:35:31;;;;;;;13.52;8.80;;;;;;;0.35;76.13;100768.97;5067952;28;20087;-68
2022/01/24 06:38:01;;;;;;;10.85;8.68;;;;;;;0.06;76.29;100724.41;5067798;28;20060;-67
2022/01/24 06:40:32;;;;;;;9.48;7.60;;;;;;;0.72;76.27;100849.31;5050402;28;20313;-68
2022/01/24 06:43:01;;;;;;;9.48;6.95;;;;;;;0.35;76.23;100785.50;5067232;28;20289;-68
2022/01/24 06:45:32;;;;;;;12.10;8.23;;;;;;;0.68;76.55;100851.88;5067809;28;20083;-68
2022/01/24 06:48:04;;;;;;;19.17;8.20;;;;;;;0.71;76.44;100855.38;5067729;28;20041;-69
2022/01/24 06:50:32;;;;;;;11.73;9.32;;;;;;;-0.12;76.26;100709.47;5066944;28;20049;-68
2022/01/24 06:53:02;;;;;;;11.48;9.07;;;;;;;0.73;76.41;100861.50;5067813;28;20104;-68
2022/01/24 06:55:32;;;;;;;12.10;8.15;;;;;;;0.69;76.37;100864.94;5067406;28;20037;-68
2022/01/24 06:58:03;;;;;;;10.07;8.07;;;;;;;0.68;76.52;100863.19;5067433;28;20041;-70
2022/01/24 07:00:33;;;;;;;12.85;8.02;;;;;;;0.32;76.62;100792.41;5049791;28;20107;-67
2022/01/24 07:03:04;;;;;;;9.77;7.40;;;;;;;0.70;76.39;100855.38;5067556;28;20067;-67
2022/01/24 07:05:33;;;;;;;12.38;8.73;;;;;;;0.63;76.84;100862.28;5066507;28;20049;-66
2022/01/24 07:08:04;;;;;;;11.20;8.52;;;;;;;0.65;76.48;100864.91;5067176;28;20060;-66
2022/01/24 07:10:34;;;;;;;9.85;7.38;;;;;;;0.70;76.57;100865.81;5049777;28;20033;-69
2022/01/24 07:13:03;;;;;;;10.30;8.20;;;;;;;0.73;76.26;100866.72;5067252;28;20262;-68
2022/01/24 07:15:38;;;;;;;9.85;6.97;;;;;;;0.76;76.39;100866.72;5067103;28;20127;-68
2022/01/24 07:18:57;;;;;;;12.32;8.90;;;;;;;0.74;76.41;100876.28;5067063;28;20327;-69
2022/01/24 07:21:09;;;;;;;11.55;8.45;;;;;;;0.80;76.29;100883.28;5066884;28;20099;-69
2022/01/24 07:23:41;;;;;;;9.65;6.90;;;;;;;0.51;76.11;100831.72;5066893;28;20293;-68
2022/01/24 07:26:13;;;;;;;11.93;7.90;;;;;;;0.82;76.13;100890.28;5066866;28;20048;-69
2022/01/24 07:28:46;;;;;;;10.32;7.75;;;;;;;0.77;76.12;100889.38;5066760;28;20048;-67
2022/01/24 07:31:18;;;;;;;13.48;8.55;;;;;;;0.80;76.10;100893.72;5066937;28;20045;-67
2022/01/24 07:33:52;;;;;;;9.57;8.35;;;;;;;0.77;75.92;100899.81;5066680;28;20045;-67
2022/01/24 07:36:24;;;;;;;13.00;10.30;;;;;;;0.72;75.72;100906.72;5066551;28;20048;-67
2022/01/24 07:38:56;;;;;;;12.60;9.05;;;;;;;0.70;75.62;100902.34;5065407;28;20334;-67
2022/01/24 07:41:31;;;;;;;10.43;7.95;;;;;;;0.68;75.60;100906.66;5066491;28;20297;-67
2022/01/24 07:44:03;;;;;;;10.82;8.13;;;;;;;0.73;75.44;100908.47;5066383;28;20346;-67
2022/01/24 07:46:35;;;;;;;10.43;7.65;;;;;;;0.76;75.34;100913.72;5066657;28;20099;-68
2022/01/24 07:49:12;;;;;;;13.38;9.80;;;;;;;0.78;75.14;100924.16;5066249;28;20200;-67
2022/01/24 07:51:44;;;;;;;13.73;9.75;;;;;;;0.79;75.01;100926.78;5066196;28;20236;-68
2022/01/24 07:54:16;;;;;;;14.02;9.35;;;;;;;0.72;74.92;100932.81;5066542;28;20063;-67
2022/01/24 07:56:49;;;;;;;12.00;7.95;;;;;;;0.71;75.10;100938.00;5065372;28;20090;-66
2022/01/24 07:59:21;;;;;;;13.93;9.75;;;;;;;0.42;75.20;100885.53;5066283;28;20087;-68
2022/01/24 08:01:53;;;;;;;13.32;8.63;;;;;;;0.42;74.83;100894.25;5064974;28;20041;-67
2022/01/24 08:04:27;;;;;;;13.73;8.63;;;;;;;0.73;75.14;100946.72;5065071;28;20068;-67
2022/01/24 08:06:59;;;;;;;15.35;8.55;;;;;;;0.74;75.13;100951.97;5065870;28;20300;-67
2022/01/24 08:09:32;;;;;;;11.70;8.95;;;;;;;0.53;75.05;100907.41;5065119;28;20339;-67
2022/01/24 08:12:05;;;;;;;13.45;9.35;;;;;;;0.77;75.06;100953.72;5066172;28;20344;-67
2022/01/24 08:14:37;;;;;;;13.25;9.10;;;;;;;0.81;74.87;100958.13;5064872;28;20044;-68
2022/01/24 08:17:10;;;;;;;15.27;9.15;;;;;;;0.78;74.87;100958.97;5064939;28;20289;-67
2022/01/24 08:19:43;;;;;;;13.75;9.02;;;;;;;0.82;74.85;100960.75;5065962;28;20045;-67
2022/01/24 08:22:15;;;;;;;13.07;8.68;;;;;;;0.51;74.78;100915.22;5065567;28;20086;-67
2022/01/24 08:24:49;;;;;;;12.98;8.63;;;;;;;0.77;74.96;100970.28;5065581;28;20244;-67
2022/01/24 08:27:24;;;;;;;12.23;8.60;;;;;;;0.76;74.94;100968.53;5065818;28;20044;-67
2022/01/24 08:29:57;;;;;;;13.60;9.00;;;;;;;0.78;74.83;100965.91;5065538;28;20086;-67
2022/01/24 08:32:29;;;;;;;13.68;8.25;;;;;;;0.80;74.64;100965.09;5065714;28;20094;-67
2022/01/24 08:35:03;;;;;;;13.00;8.75;;;;;;;0.46;74.67;100905.59;5065359;28;20041;-67
2022/01/24 08:37:36;;;;;;;10.85;8.27;;;;;;;-0.39;74.62;100820.34;5065356;28;20045;-67
2022/01/24 08:40:11;;;;;;;11.77;8.18;;;;;;;0.74;74.68;100970.25;5064819;28;20281;-67
2022/01/24 08:42:53;;;;;;;12.68;9.65;;;;;;;0.70;74.61;100970.19;5065263;28;20037;-67
2022/01/24 08:48:21;;;;;;;12.52;9.98;;;;;;;0.74;75.08;100974.59;5065164;28;20098;-67
2022/01/24 08:50:56;;;;;;;14.95;9.15;;;;;;;0.75;74.94;100972.00;5064561;28;20355;-67
2022/01/24 08:53:31;;;;;;;16.30;10.20;;;;;;;0.77;74.88;100966.78;5065141;28;20231;-67
2022/01/24 08:56:05;;;;;;;;;;;;;;;0.70;74.97;100975.41;5065468;28;20090;-67
2022/01/24 08:58:37;;;;;;;17.20;10.32;;;;;;;0.72;75.15;100974.56;5064919;28;19924;-67
2022/01/24 09:01:09;;;;;;;19.73;12.02;;;;;;;0.79;75.19;100978.13;5064864;28;20044;-68
2022/01/24 09:03:41;;;;;;;21.60;10.35;;;;;;;0.77;75.06;100975.50;5065306;28;20066;-68
2022/01/24 09:06:17;;;;;;;17.73;12.30;;;;;;;0.77;74.81;100982.44;5064915;28;20084;-67
2022/01/24 09:08:55;;;;;;;18.85;9.95;;;;;;;0.82;74.87;100988.59;5065350;28;20041;-68
2022/01/24 09:11:29;;;;;;;17.95;10.77;;;;;;;0.80;74.83;100983.34;5065115;28;20053;-67
2022/01/24 09:14:03;;;;;;;13.43;10.02;;;;;;;0.72;74.28;100998.06;5065469;28;20048;-67
2022/01/24 09:16:36;;;;;;;14.90;10.13;;;;;;;-1.01;74.14;100699.75;5065144;28;20091;-67
2022/01/24 09:19:09;;;;;;;12.88;8.68;;;;;;;0.71;74.20;101008.47;5065269;28;20049;-67
2022/01/24 09:21:42;;;;;;;16.15;9.73;;;;;;;0.75;74.29;101005.91;5065016;28;20326;-67
2022/01/24 09:24:15;;;;;;;16.85;11.68;;;;;;;0.78;74.27;101003.34;5064227;28;20040;-67
2022/01/24 09:26:47;;;;;;;16.33;12.13;;;;;;;0.45;74.27;100948.19;5064169;28;20090;-68
2022/01/24 09:29:19;;;;;;;19.00;14.35;;;;;;;0.48;74.04;100963.88;5065115;28;20041;-67
2022/01/24 09:31:52;;;;;;;14.43;9.13;;;;;;;0.78;74.14;101015.50;5064713;28;20045;-67
2022/01/24 09:34:24;;;;;;;14.65;9.68;;;;;;;0.51;74.01;100971.72;5064849;28;20044;-67
2022/01/24 09:36:59;;;;;;;17.52;9.70;;;;;;;0.77;73.71;101014.63;5063996;28;20212;-68
2022/01/24 09:39:31;;;;;;;17.65;10.48;;;;;;;0.45;73.88;100962.09;5064703;28;20045;-68
2022/01/24 09:42:04;;;;;;;14.95;11.05;;;;;;;0.71;73.96;101014.56;5064507;28;20083;-67
2022/01/24 09:44:36;;;;;;;17.42;12.20;;;;;;;0.60;73.96;101018.78;5064707;28;20045;-68
2022/01/24 09:47:08;;;;;;;19.08;14.07;;;;;;;0.48;74.08;101018.66;5063913;28;20041;-68
2022/01/24 09:49:40;;;;;;;18.70;11.05;;;;;;;0.50;74.32;101011.72;5064718;28;20051;-68
2022/01/24 09:52:15;;;;;;;17.27;10.40;;;;;;;0.21;73.99;100953.97;5064099;28;20328;-67
2022/01/24 09:54:47;;;;;;;13.93;10.35;;;;;;;0.29;73.90;100954.94;5065100;28;20043;-68
2022/01/24 09:57:20;;;;;;;14.80;9.88;;;;;;;0.52;73.58;101004.78;5064618;28;20041;-67
2022/01/24 09:59:55;;;;;;;15.75;10.10;;;;;;;0.55;73.57;101008.31;5064835;28;20087;-67
2022/01/24 10:02:27;;;;;;;16.23;10.65;;;;;;;-0.29;73.35;100893.41;5065571;28;20142;-67
2022/01/24 10:05:14;;;;;;;17.08;10.75;;;;;;;0.50;73.17;101006.50;5068299;28;20049;-67
2022/01/24 10:07:56;;;;;;;16.92;11.80;;;;;;;-0.27;73.19;100916.00;5067800;28;20048;-68
2022/01/24 10:10:30;;;;;;;19.50;12.13;;;;;;;0.50;73.36;101004.75;5068262;28;20091;-67
2022/01/24 10:16:30;;;;;;;16.55;11.45;;;;;;;0.52;73.51;100996.94;5068259;28;20095;-68
2022/01/24 10:19:08;;;;;;;15.95;10.98;;;;;;;-0.19;73.18;100895.25;5068291;28;20037;-67
2022/01/24 10:21:42;;;;;;;18.85;11.88;;;;;;;0.45;72.89;100984.69;5067889;28;20048;-67
2022/01/24 10:24:31;;;;;;;18.00;14.07;;;;;;;0.08;72.75;100942.53;5068230;28;20158;-67
2022/01/24 10:27:08;;;;;;;23.52;14.88;;;;;;;0.36;73.04;100981.97;5067862;28;20086;-67
2022/01/24 10:29:48;;;;;;;19.70;14.73;;;;;;;0.37;72.50;100982.00;5067939;28;20087;-67
2022/01/24 10:32:35;;;;;;;23.40;13.77;;;;;;;0.03;72.22;100927.69;5067941;28;20091;-68
2022/01/24 10:35:33;;;;;;;24.48;15.27;;;;;;;0.39;72.62;100979.41;5067081;28;20259;-67
2022/01/24 10:38:21;;;;;;;19.33;11.95;;;;;;;0.47;72.87;100982.97;5067751;28;20292;-67
2022/01/24 10:41:08;;;;;;;21.00;15.15;;;;;;;0.56;72.77;100970.03;5067509;28;20083;-67
2022/01/24 10:43:41;;;;;;;16.02;13.07;;;;;;;0.30;72.58;100935.84;5066546;28;20328;-68
2022/01/24 10:46:14;;;;;;;20.17;13.85;;;;;;;0.62;73.07;100983.16;5067480;28;20041;-68
2022/01/24 10:48:49;;;;;;;20.33;15.10;;;;;;;0.60;73.08;100982.25;5067353;28;20153;-67
2022/01/24 10:51:23;;;;;;;22.67;14.38;;;;;;;0.69;73.08;100999.75;5066726;28;20045;-68
2022/01/24 10:53:57;;;;;;;23.75;14.73;;;;;;;0.43;73.11;100935.13;5067471;28;20051;-68
2022/01/24 10:56:37;;;;;;;21.63;15.35;;;;;;;0.66;72.68;100969.28;5067532;28;20045;-67
2022/01/24 10:59:21;;;;;;;21.33;13.90;;;;;;;0.73;72.85;100976.31;5067408;28;20041;-68
2022/01/24 11:01:55;;;;;;;21.15;13.98;;;;;;;0.48;72.69;100927.34;5067375;28;20110;-68
2022/01/24 11:04:28;;;;;;;20.05;15.48;;;;;;;0.79;72.63;100975.50;5066173;28;20057;-68
2022/01/24 11:07:02;;;;;;;23.10;15.90;;;;;;;0.83;72.62;100975.56;5067248;28;20045;-67
2022/01/24 11:09:36;;;;;;;27.48;17.13;;;;;;;0.32;72.38;100936.72;5067202;28;20041;-67
2022/01/24 11:12:13;;;;;;;25.77;16.40;;;;;;;0.76;72.50;100968.53;5067072;28;20044;-67
2022/01/24 11:14:46;;;;;;;23.45;15.13;;;;;;;0.44;71.87;100918.59;5065991;28;20384;-68
2022/01/24 11:17:24;;;;;;;24.23;15.48;;;;;;;0.72;72.25;100958.03;5067066;28;20139;-68
2022/01/24 11:20:02;;;;;;;23.25;15.80;;;;;;;0.76;72.21;100962.44;5066624;28;20037;-68
2022/01/24 11:22:41;;;;;;;25.50;16.50;;;;;;;0.51;72.01;100912.59;5066802;28;20052;-68
2022/01/24 11:25:14;;;;;;;26.17;16.08;;;;;;;0.68;71.88;100961.47;5066743;28;20044;-67
2022/01/24 11:27:49;;;;;;;20.13;15.18;;;;;;;0.47;71.96;100921.25;5066083;28;20055;-67
2022/01/24 11:30:27;;;;;;;21.42;16.50;;;;;;;0.68;71.37;100961.47;5066462;28;20091;-67
2022/01/24 11:33:04;;;;;;;21.77;15.00;;;;;;;0.61;71.56;100955.31;5066655;28;20216;-68
2022/01/24 11:35:40;;;;;;;23.98;16.10;;;;;;;0.60;71.76;100959.66;5066872;28;20083;-68
2022/01/24 11:38:30;;;;;;;22.70;15.82;;;;;;;0.49;70.81;100958.66;5066519;28;20064;-67
2022/01/24 11:41:05;;;;;;;26.13;14.95;;;;;;;0.48;71.36;100948.22;5066555;28;20243;-67
2022/01/24 11:43:43;;;;;;;23.98;15.45;;;;;;;0.14;71.62;100882.63;5065600;28;20100;-67
2022/01/24 11:46:35;;;;;;;20.13;13.70;;;;;;;0.54;70.66;100945.66;5066788;28;20316;-67
2022/01/24 11:49:11;;;;;;;21.90;15.05;;;;;;;0.45;71.03;100992.53;5065891;28;20104;-67
2022/01/24 11:51:45;;;;;;;24.35;13.10;;;;;;;0.50;70.74;100952.59;5065712;28;20033;-67
2022/01/24 11:54:43;;;;;;;24.93;15.20;;;;;;;0.52;69.74;100950.88;5065468;28;20045;-68
2022/01/24 11:57:23;;;;;;;20.75;12.38;;;;;;;0.45;69.37;100963.84;5065826;28;20273;-67
2022/01/24 12:00:36;;;;;;;20.33;14.02;;;;;;;0.44;69.48;100962.06;5066533;28;20041;-67
2022/01/24 12:03:20;;;;;;;20.40;13.77;;;;;;;0.41;69.74;100959.44;5064228;28;20327;-68
2022/01/24 12:05:53;;;;;;;21.60;13.20;;;;;;;-0.41;70.25;100832.47;5065797;28;20056;-67
2022/01/24 12:08:33;;;;;;;21.23;13.93;;;;;;;0.44;70.35;100951.66;5065409;28;20041;-67
2022/01/24 12:11:13;;;;;;;19.15;11.88;;;;;;;0.47;70.09;100952.56;5066487;28;20340;-67
2022/01/24 12:13:47;;;;;;;19.98;13.63;;;;;;;0.53;70.58;100951.75;5065999;28;20194;-67
2022/01/24 12:16:20;;;;;;;22.88;13.88;;;;;;;0.54;69.83;100945.66;5066038;28;20041;-68
2022/01/24 12:19:00;;;;;;;21.15;13.45;;;;;;;0.11;69.59;100872.19;5066072;28;20041;-68
2022/01/24 12:21:35;;;;;;;18.17;14.15;;;;;;;0.50;70.43;100936.94;5048313;28;20151;-67
2022/01/24 12:24:08;;;;;;;;;;;;;;;0.54;69.98;100936.09;5066613;28;20040;-67
2022/01/24 12:26:43;;;;;;;21.88;14.15;;;;;;;0.58;70.42;100943.09;5064725;28;19976;-69
2022/01/24 12:29:16;;;;;;;;;;;;;;;0.57;69.46;100941.34;5066466;28;20044;-68
2022/01/24 12:31:51;;;;;;;19.30;14.75;;;;;;;0.52;70.29;100945.66;5065036;28;19924;-68
2022/01/24 12:34:32;;;;;;;21.73;14.35;;;;;;;-0.38;69.49;100802.97;5065806;28;20048;-68
2022/01/24 12:37:11;;;;;;;19.52;14.90;;;;;;;0.42;70.08;100945.53;5065559;28;20040;-68
2022/01/24 12:39:52;;;;;;;22.33;14.15;;;;;;;0.06;70.17;100894.72;5065521;28;20044;-68
2022/01/24 12:48:16;;;;;;;19.73;15.32;;;;;;;0.35;70.79;100941.97;5064305;28;20182;-68
2022/01/24 12:50:54;;;;;;;20.42;13.55;;;;;;;0.41;70.85;100928.13;5065622;28;20036;-69
2022/01/24 12:53:28;;;;;;;22.67;15.27;;;;;;;-1.19;70.80;100696.91;5065692;28;20044;-69
2022/01/24 12:56:02;;;;;;;21.73;16.15;;;;;;;0.44;71.05;100926.44;5064619;28;20037;-68
2022/01/24 12:58:39;;;;;;;21.45;15.43;;;;;;;0.41;70.81;100934.22;5065496;28;20056;-68
2022/01/24 13:01:23;;;;;;;21.55;14.73;;;;;;;0.49;70.91;100932.56;5065322;28;20082;-69
2022/01/24 13:03:58;;;;;;;21.20;14.90;;;;;;;0.49;71.43;100929.09;5064683;28;20064;-69
2022/01/24 13:06:35;;;;;;;22.17;15.60;;;;;;;0.55;70.99;100918.72;5064574;28;20063;-68
2022/01/24 13:09:13;;;;;;;21.98;15.43;;;;;;;0.59;71.17;100921.38;5064398;28;20041;-69
2022/01/24 13:11:47;;;;;;;22.42;14.93;;;;;;;0.62;71.12;100920.53;5064417;28;20079;-68
2022/01/24 13:14:25;;;;;;;20.20;15.93;;;;;;;0.64;71.36;100918.81;5065574;28;20045;-69